createdAt,value
2019-04-27T00:02:18.143Z,94.45
2019-04-27T00:07:37.902Z,93.96
2019-04-27T00:12:42.888Z,93.72
2019-04-27T00:18:03.650Z,94.81
2019-04-27T00:23:08.734Z,94.95
2019-04-27T00:28:12.861Z,95.19
2019-04-27T00:33:16.344Z,94.24
2019-04-27T00:38:27.503Z,94.80
2019-04-27T00:43:32.752Z,95.28
2019-04-27T00:48:36.224Z,93.67
2019-04-27T00:53:39.643Z,93.37
2019-04-27T00:58:50.441Z,94.31
2019-04-27T01:03:55.513Z,93.92
2019-04-27T01:08:58.951Z,94.50
2019-04-27T01:14:03.890Z,94.74
2019-04-27T01:19:08.481Z,93.86
2019-04-27T01:24:12.686Z,94.27
2019-04-27T01:29:20.747Z,94.08
2019-04-27T01:34:24.166Z,94.04
2019-04-27T01:39:28.940Z,95.28
2019-04-27T01:44:32.620Z,95.37
2019-04-27T01:49:36.032Z,95.85
2019-04-27T01:54:41.076Z,95.40
2019-04-27T01:59:44.596Z,94.31
2019-04-27T02:05:06.200Z,94.46
2019-04-27T02:10:11.622Z,93.23
2019-04-27T02:15:15.966Z,93.16
2019-04-27T02:20:19.827Z,93.76
2019-04-27T02:25:23.437Z,92.53
2019-04-27T02:30:34.489Z,93.69
2019-04-27T02:35:39.072Z,94.66
2019-04-27T02:40:49.974Z,92.76
2019-04-27T02:45:53.400Z,93.03
2019-04-27T02:56:13.920Z,93.21
2019-04-27T03:01:19.875Z,94.11
2019-04-27T03:06:23.063Z,93.48
2019-04-27T03:11:30.471Z,93.89
2019-04-27T03:16:46.693Z,93.21
2019-04-27T03:21:59.215Z,92.81
2019-04-27T03:27:03.903Z,92.97
2019-04-27T03:32:12.389Z,91.88
2019-04-27T03:37:12.565Z,93.71
2019-04-27T03:42:16.909Z,91.16
2019-04-27T03:47:20.375Z,92.30
2019-04-27T03:52:41.536Z,91.43
2019-04-27T03:58:02.934Z,90.92
2019-04-27T04:03:06.421Z,91.87
2019-04-27T04:08:10.781Z,92.55
2019-04-27T04:13:22.648Z,92.33
2019-04-27T04:18:26.781Z,91.10
2019-04-27T04:23:30.236Z,90.98
2019-04-27T04:28:33.574Z,91.12
2019-04-27T04:33:36.981Z,91.08
2019-04-27T04:38:40.398Z,92.02
2019-04-27T04:43:51.111Z,90.97
2019-04-27T04:48:54.505Z,91.15
2019-04-27T04:53:59.838Z,91.26
2019-04-27T04:59:03.068Z,92.25
2019-04-27T05:04:06.484Z,93.36
2019-04-27T05:09:09.901Z,93.10
2019-04-27T05:14:13.322Z,93.64
2019-04-27T05:19:18.741Z,94.49
2019-04-27T05:24:21.854Z,95.70
2019-04-27T05:29:25.280Z,95.47
2019-04-27T05:34:29.403Z,96.78
2019-04-27T05:39:32.946Z,93.90
2019-04-27T05:44:56.315Z,94.62
2019-04-27T05:50:01.416Z,93.87
2019-04-27T05:55:05.190Z,94.19
2019-04-27T06:00:09.501Z,93.19
2019-04-27T06:05:13.370Z,93.25
2019-04-27T06:10:16.850Z,93.40
2019-04-27T06:15:20.289Z,93.43
2019-04-27T06:20:23.695Z,92.05
2019-04-27T06:25:30.349Z,90.35
2019-04-27T06:30:32.244Z,88.47
2019-04-27T06:35:35.670Z,88.12
2019-04-27T06:40:39.264Z,87.31
2019-04-27T06:45:43.263Z,86.17
2019-04-27T06:50:46.640Z,86.22
2019-04-27T06:55:50.149Z,85.34
2019-04-27T07:00:53.752Z,83.92
2019-04-27T07:05:58.848Z,84.75
2019-04-27T07:11:02.375Z,80.28
2019-04-27T07:16:05.801Z,79.18
2019-04-27T07:21:16.883Z,77.41
2019-04-27T07:26:14.607Z,75.32
2019-04-27T07:31:19.310Z,76.00
2019-04-27T07:36:23.028Z,70.45
2019-04-27T07:41:26.441Z,68.29
2019-04-27T07:46:31.702Z,68.37
2019-04-27T07:51:35.377Z,67.94
2019-04-27T07:56:39.112Z,69.04
2019-04-27T08:01:42.488Z,69.62
2019-04-27T08:06:45.975Z,68.50
2019-04-27T08:11:51.382Z,68.29
2019-04-27T08:16:54.739Z,67.24
2019-04-27T08:21:59.543Z,66.72
2019-04-27T08:27:09.346Z,65.35
2019-04-27T08:32:30.746Z,63.90
2019-04-27T08:37:34.379Z,65.45
2019-04-27T08:42:39.167Z,66.73
2019-04-27T08:47:42.713Z,69.21
2019-04-27T08:52:46.134Z,67.77
2019-04-27T08:57:49.702Z,72.45
2019-04-27T09:02:53.172Z,75.16
2019-04-27T09:07:59.709Z,77.43
2019-04-27T09:13:08.891Z,78.64
2019-04-27T09:18:14.087Z,81.20
2019-04-27T09:23:18.814Z,81.15
2019-04-27T09:28:22.368Z,81.64
2019-04-27T09:33:25.797Z,83.57
2019-04-27T09:38:29.806Z,84.70
2019-04-27T09:43:33.331Z,84.74
2019-04-27T09:48:36.763Z,85.49
2019-04-27T09:53:40.178Z,85.64
2019-04-27T09:58:43.789Z,87.07
2019-04-27T10:03:47.217Z,88.99
2019-04-27T10:08:50.704Z,87.73
2019-04-27T10:13:55.636Z,89.54
2019-04-27T10:18:59.136Z,87.81
2019-04-27T10:24:03.475Z,88.25
2019-04-27T10:29:06.977Z,86.34
2019-04-27T10:34:10.427Z,88.08
2019-04-27T10:39:13.908Z,85.36
2019-04-27T10:44:17.264Z,84.43
2019-04-27T10:49:20.697Z,83.71
2019-04-27T10:54:24.120Z,87.14
2019-04-27T10:59:27.725Z,88.29
2019-04-27T11:04:50.899Z,88.58
2019-04-27T11:09:54.455Z,88.21
2019-04-27T11:14:57.867Z,87.01
2019-04-27T11:20:02.725Z,85.48
2019-04-27T11:25:08.226Z,84.23
2019-04-27T11:30:15.653Z,85.94
2019-04-27T11:35:21.030Z,86.00
2019-04-27T11:40:24.965Z,83.77
2019-04-27T11:45:28.617Z,84.71
2019-04-27T11:50:31.990Z,85.15
2019-04-27T11:55:35.397Z,84.64
2019-04-27T12:00:38.819Z,86.20
2019-04-27T12:05:42.230Z,88.14
2019-04-27T12:10:48.250Z,85.99
2019-04-27T12:15:51.883Z,88.29
2019-04-27T12:20:55.790Z,84.17
2019-04-27T12:25:59.289Z,82.74
2019-04-27T12:31:04.357Z,80.77
2019-04-27T12:36:08.035Z,87.48
2019-04-27T12:41:11.469Z,88.13
2019-04-27T12:46:16.016Z,84.94
2019-04-27T12:51:21.026Z,87.33
2019-04-27T12:56:41.366Z,86.74
2019-04-27T13:01:46.265Z,89.61
2019-04-27T13:06:49.763Z,92.61
2019-04-27T13:11:53.182Z,87.35
2019-04-27T13:16:56.599Z,89.40
2019-04-27T13:22:23.718Z,87.19
2019-04-27T13:27:18.186Z,84.76
2019-04-27T13:32:21.840Z,87.69
2019-04-27T13:37:33.072Z,85.90
2019-04-27T13:42:38.222Z,84.98
2019-04-27T13:47:43.328Z,84.22
2019-04-27T13:52:46.805Z,83.72
2019-04-27T13:57:50.743Z,80.79
2019-04-27T14:02:54.393Z,80.50
2019-04-27T14:07:59.168Z,83.52
2019-04-27T14:13:02.741Z,81.85
2019-04-27T14:18:09.753Z,83.89
2019-04-27T14:23:18.652Z,83.42
2019-04-27T14:28:22.035Z,84.28
2019-04-27T14:33:26.303Z,84.92
2019-04-27T14:39:01.819Z,85.24
2019-04-27T14:55:28.233Z,86.93
2019-04-27T15:00:58.452Z,87.02
2019-04-27T15:05:53.661Z,86.02
2019-04-27T15:10:56.676Z,85.85
2019-04-27T15:16:02.714Z,86.17
2019-04-27T15:21:05.919Z,85.97
2019-04-27T15:26:10.457Z,84.89
2019-04-27T15:31:27.012Z,83.34
2019-04-27T15:36:32.005Z,81.89
2019-04-27T15:41:39.452Z,81.81
2019-04-27T15:46:42.935Z,77.89
2019-04-27T15:51:46.362Z,69.87
2019-04-27T15:56:49.780Z,70.20
2019-04-27T16:01:53.253Z,70.03
2019-04-27T16:06:58.555Z,71.05
2019-04-27T16:12:09.931Z,70.82
2019-04-27T16:17:09.888Z,69.31
2019-04-27T16:22:12.233Z,69.52
2019-04-27T16:27:15.730Z,68.83
2019-04-27T16:32:19.235Z,71.76
2019-04-27T16:37:28.561Z,73.36
2019-04-27T16:42:32.064Z,74.53
2019-04-27T16:47:35.655Z,72.73
2019-04-27T16:52:39.076Z,75.59
2019-04-27T16:57:42.500Z,75.80
2019-04-27T17:02:46.049Z,76.44
2019-04-27T17:07:49.461Z,80.40
2019-04-27T17:12:52.877Z,81.46
2019-04-27T17:18:13.944Z,82.33
2019-04-27T17:23:22.544Z,84.21
2019-04-27T17:28:25.153Z,84.51
2019-04-27T17:33:32.724Z,86.01
2019-04-27T17:38:36.138Z,87.21
2019-04-27T17:43:41.579Z,85.06
2019-04-27T17:48:44.672Z,84.76
2019-04-27T17:53:49.900Z,84.04
2019-04-27T17:58:53.263Z,85.49
2019-04-27T18:04:01.586Z,85.50
2019-04-27T18:09:03.399Z,86.19
2019-04-27T18:14:09.822Z,87.80
2019-04-27T18:19:18.416Z,87.54
2019-04-27T18:24:25.112Z,89.36
2019-04-27T18:29:30.834Z,90.51
2019-04-27T18:34:33.852Z,89.84
2019-04-27T18:39:38.777Z,91.55
2019-04-27T18:44:43.348Z,90.91
2019-04-27T18:50:07.347Z,90.77
2019-04-27T18:55:02.310Z,91.93
2019-04-27T19:00:07.481Z,92.47
2019-04-27T19:05:11.226Z,92.75
2019-04-27T19:10:14.809Z,93.44
2019-04-27T19:15:19.418Z,92.65
2019-04-27T19:20:22.846Z,92.73
2019-04-27T19:25:30.750Z,92.57
2019-04-27T19:30:38.490Z,92.53
2019-04-27T19:35:42.160Z,94.93
2019-04-27T19:40:45.616Z,94.21
2019-04-27T19:45:49.012Z,95.14
2019-04-27T19:50:52.432Z,95.32
2019-04-27T19:56:01.646Z,96.07
2019-04-27T20:01:11.861Z,95.79
2019-04-27T20:06:12.470Z,95.25
2019-04-27T20:11:16.012Z,97.06
2019-04-27T20:16:20.812Z,98.51
2019-04-27T20:21:24.388Z,99.94
2019-04-27T20:26:27.933Z,100.00
2019-04-27T20:31:32.563Z,100.00
2019-04-27T20:36:36.086Z,100.00
2019-04-27T20:41:41.100Z,100.00
2019-04-27T20:46:44.678Z,98.92
2019-04-27T20:51:53.041Z,98.04
2019-04-27T20:56:57.089Z,99.29
2019-04-27T21:02:02.301Z,97.49
2019-04-27T21:07:07.346Z,97.20
2019-04-27T21:12:10.770Z,96.17
2019-04-27T21:17:14.178Z,96.84
2019-04-27T21:22:17.673Z,95.13
2019-04-27T21:27:21.610Z,96.18
2019-04-27T21:32:25.256Z,97.61
2019-04-27T21:37:28.684Z,96.21
2019-04-27T21:42:32.092Z,95.85
2019-04-27T21:47:35.502Z,96.48
2019-04-27T21:52:49.704Z,97.07
2019-04-27T21:57:53.128Z,96.51
2019-04-27T22:02:56.699Z,96.80
2019-04-27T22:08:00.874Z,96.64
2019-04-27T22:13:05.355Z,95.72
2019-04-27T22:18:08.797Z,95.33
2019-04-27T22:23:23.169Z,94.48
2019-04-27T22:28:26.940Z,94.57
2019-04-27T22:33:30.364Z,95.72
2019-04-27T22:38:33.820Z,95.56
2019-04-27T22:43:44.857Z,96.38
2019-04-27T22:48:48.316Z,96.66
2019-04-27T22:53:51.733Z,95.97
2019-04-27T22:59:00.642Z,95.72
2019-04-27T23:04:03.567Z,94.47
2019-04-27T23:09:07.209Z,95.48
2019-04-27T23:14:11.127Z,96.06
2019-04-27T23:19:14.757Z,95.42
2019-04-27T23:24:18.280Z,95.48
2019-04-27T23:29:21.714Z,95.81
2019-04-27T23:34:25.238Z,95.18
2019-04-27T23:39:28.660Z,95.88
2019-04-27T23:44:32.070Z,95.01
2019-04-27T23:49:35.496Z,95.04
2019-04-27T23:54:38.977Z,95.90
2019-04-27T23:59:42.387Z,96.05
